createdAt,value
2022-10-11T00:01:14.387Z,7.30
2022-10-11T00:04:16.804Z,7.30
2022-10-11T00:07:20.720Z,5.32
2022-10-11T00:10:23.024Z,7.18
2022-10-11T00:13:25.678Z,7.63
2022-10-11T00:16:27.898Z,8.80
2022-10-11T00:19:30.209Z,5.13
2022-10-11T00:22:34.688Z,8.45
2022-10-11T00:25:37.068Z,4.40
2022-10-11T00:28:40.426Z,4.72
2022-10-11T00:31:42.732Z,8.20
2022-10-11T00:34:44.994Z,8.13
2022-10-11T00:37:48.601Z,7.07
2022-10-11T00:40:50.771Z,7.68
2022-10-11T00:44:08.532Z,7.72
2022-10-11T00:47:13.303Z,6.93
2022-10-11T00:50:15.595Z,4.93
2022-10-11T00:53:19.235Z,8.88
2022-10-11T00:56:25.152Z,8.43
2022-10-11T00:59:30.220Z,8.07
2022-10-11T01:02:32.552Z,11.20
2022-10-11T01:05:36.662Z,7.60
2022-10-11T01:08:40.528Z,4.90
2022-10-11T01:11:43.954Z,7.50
2022-10-11T01:15:05.887Z,4.65
2022-10-11T01:18:15.239Z,7.90
2022-10-11T01:21:25.786Z,11.48
2022-10-11T01:24:42.388Z,5.80
2022-10-11T01:27:52.187Z,8.63
2022-10-11T01:31:01.934Z,4.90
2022-10-11T01:34:06.559Z,6.53
2022-10-11T01:37:13.093Z,5.22
2022-10-11T01:40:19.554Z,7.53
2022-10-11T01:43:22.972Z,6.20
2022-10-11T01:46:27.406Z,7.38
2022-10-11T01:49:29.572Z,7.25
2022-10-11T01:52:33.832Z,9.38
2022-10-11T01:55:39.638Z,6.22
2022-10-11T01:58:54.503Z,3.63
2022-10-11T02:02:08.923Z,9.40
2022-10-11T02:05:18.743Z,6.22
2022-10-11T02:08:26.618Z,4.13
2022-10-11T02:11:30.812Z,6.82
2022-10-11T02:14:35.624Z,9.02
2022-10-11T02:17:41.589Z,6.03
2022-10-11T02:20:45.428Z,13.07
2022-10-11T02:23:50.183Z,4.30
2022-10-11T02:26:54.614Z,9.40
2022-10-11T02:29:59.783Z,8.48
2022-10-11T02:33:06.476Z,5.38
2022-10-11T02:36:13.109Z,11.93
2022-10-11T02:39:19.607Z,6.85
2022-10-11T02:42:26.909Z,4.32
2022-10-11T02:45:31.964Z,5.15
2022-10-11T02:48:36.217Z,5.25
2022-10-11T02:51:38.802Z,7.28
2022-10-11T02:54:41.004Z,3.05
2022-10-11T02:57:43.197Z,3.53
2022-10-11T03:00:45.450Z,3.00
2022-10-11T03:03:49.180Z,2.72
2022-10-11T03:06:51.432Z,6.00
2022-10-11T03:09:53.651Z,6.78
2022-10-11T03:12:55.812Z,4.90
2022-10-11T03:16:03.191Z,5.28
2022-10-11T03:19:07.305Z,3.70
2022-10-11T03:22:12.586Z,6.65
2022-10-11T03:25:14.884Z,8.02
2022-10-11T03:28:17.063Z,5.28
2022-10-11T03:31:20.549Z,7.85
2022-10-11T03:34:24.238Z,7.25
2022-10-11T03:37:26.611Z,8.48
2022-10-11T03:40:28.859Z,8.18
2022-10-11T03:43:31.079Z,5.65
2022-10-11T03:46:34.103Z,6.75
2022-10-11T03:49:42.585Z,4.30
2022-10-11T03:52:45.710Z,3.85
2022-10-11T03:55:52.138Z,8.98
2022-10-11T03:58:54.414Z,7.55
2022-10-11T04:01:57.015Z,5.57
2022-10-11T04:05:01.691Z,5.78
2022-10-11T04:08:07.315Z,6.65
2022-10-11T04:11:12.063Z,8.25
2022-10-11T04:14:14.625Z,7.28
2022-10-11T04:17:17.110Z,7.65
2022-10-11T04:20:21.879Z,9.73
2022-10-11T04:23:24.107Z,6.15
2022-10-11T04:26:26.415Z,6.85
2022-10-11T04:29:32.353Z,5.60
2022-10-11T04:32:35.061Z,4.70
2022-10-11T04:35:41.427Z,8.05
2022-10-11T04:38:56.168Z,5.63
2022-10-11T04:42:46.995Z,8.20
2022-10-11T04:46:42.709Z,12.63
2022-10-11T04:53:20.445Z,7.63
2022-10-11T04:56:32.028Z,10.52
2022-10-11T04:59:37.038Z,10.32
2022-10-11T05:02:39.498Z,4.70
2022-10-11T05:05:44.063Z,10.50
2022-10-11T05:08:47.881Z,3.80
2022-10-11T05:11:50.155Z,8.57
2022-10-11T05:14:52.456Z,9.52
2022-10-11T05:17:54.721Z,10.10
2022-10-11T05:21:16.159Z,7.43
2022-10-11T05:24:19.731Z,10.45
2022-10-11T05:27:22.015Z,8.93
2022-10-11T05:30:24.210Z,15.02
2022-10-11T05:33:26.940Z,9.82
2022-10-11T05:36:29.188Z,5.57
2022-10-11T05:39:32.826Z,10.35
2022-10-11T05:42:35.038Z,11.75
2022-10-11T05:45:38.091Z,11.77
2022-10-11T05:48:40.257Z,8.00
2022-10-11T05:51:42.490Z,18.02
2022-10-11T05:54:46.215Z,12.77
2022-10-11T05:57:48.377Z,17.23
2022-10-11T06:00:50.594Z,12.55
2022-10-11T06:03:52.968Z,10.30
2022-10-11T06:06:55.132Z,14.43
2022-10-11T06:09:58.650Z,16.25
2022-10-11T06:13:01.129Z,12.93
2022-10-11T06:16:04.501Z,10.43
2022-10-11T06:19:06.862Z,32.05
2022-10-11T06:22:11.030Z,27.65
2022-10-11T06:25:14.818Z,40.67
2022-10-11T06:28:17.076Z,36.72
2022-10-11T06:31:19.317Z,44.30
2022-10-11T06:34:21.648Z,45.78
2022-10-11T06:37:23.960Z,38.15
2022-10-11T06:40:27.714Z,41.30
2022-10-11T06:43:30.019Z,40.08
2022-10-11T06:46:33.194Z,46.60
2022-10-11T06:49:35.503Z,39.90
2022-10-11T06:52:38.488Z,47.78
2022-10-11T06:55:42.136Z,42.85
2022-10-11T06:58:44.794Z,58.38
2022-10-11T07:01:49.685Z,61.70
2022-10-11T07:04:54.036Z,63.08
2022-10-11T07:07:56.252Z,64.22
2022-10-11T07:11:04.746Z,62.03
2022-10-11T07:14:07.999Z,63.67
2022-10-11T07:17:12.661Z,61.47
2022-10-11T07:20:14.860Z,61.15
2022-10-11T07:23:17.101Z,73.97
2022-10-11T07:26:21.191Z,63.70
2022-10-11T07:29:23.537Z,62.80
2022-10-11T07:32:25.935Z,61.72
2022-10-11T07:35:28.206Z,69.25
2022-10-11T07:38:32.789Z,67.55
2022-10-11T07:41:39.661Z,74.75
2022-10-11T07:44:44.065Z,80.45
2022-10-11T07:47:46.568Z,69.47
2022-10-11T07:50:49.034Z,73.65
2022-10-11T07:53:52.584Z,72.88
2022-10-11T07:56:56.255Z,59.13
2022-10-11T07:59:58.504Z,62.03
2022-10-11T08:03:02.618Z,61.03
2022-10-11T08:06:12.129Z,64.88
2022-10-11T08:09:16.398Z,56.95
2022-10-11T08:12:20.089Z,58.90
2022-10-11T08:15:22.499Z,54.65
2022-10-11T08:18:24.912Z,53.30
2022-10-11T08:21:30.301Z,50.63
2022-10-11T08:24:41.902Z,47.80
2022-10-11T08:27:47.882Z,48.95
2022-10-11T08:30:52.505Z,50.78
2022-10-11T08:33:55.793Z,54.85
2022-10-11T08:36:58.344Z,57.17
2022-10-11T08:40:05.858Z,61.20
2022-10-11T08:43:18.278Z,47.75
2022-10-11T08:46:23.755Z,61.65
2022-10-11T08:49:53.346Z,55.47
2022-10-11T08:53:57.361Z,51.78
2022-10-11T08:57:12.366Z,60.20
2022-10-11T09:00:17.901Z,56.22
2022-10-11T09:03:26.244Z,58.65
2022-10-11T09:07:05.016Z,65.93
2022-10-11T09:11:01.374Z,65.72
2022-10-11T09:14:22.305Z,61.15
2022-10-11T09:17:42.745Z,57.83
2022-10-11T09:21:13.804Z,59.35
2022-10-11T09:24:34.494Z,59.38
2022-10-11T09:28:01.687Z,60.83
2022-10-11T09:31:09.454Z,56.00
2022-10-11T09:34:15.244Z,53.42
2022-10-11T09:37:22.304Z,51.20
2022-10-11T09:40:42.887Z,57.00
2022-10-11T09:43:46.383Z,60.83
2022-10-11T09:46:49.687Z,50.88
2022-10-11T09:49:57.514Z,53.05
2022-10-11T09:53:01.765Z,62.53
2022-10-11T09:56:05.228Z,51.13
2022-10-11T09:59:10.057Z,54.72
2022-10-11T10:02:21.099Z,55.08
2022-10-11T10:05:26.294Z,47.78
2022-10-11T10:08:28.688Z,48.20
2022-10-11T10:11:36.696Z,50.58
2022-10-11T10:14:41.522Z,51.03
2022-10-11T10:17:48.851Z,52.00
2022-10-11T10:20:55.045Z,45.50
2022-10-11T10:24:00.144Z,48.15
2022-10-11T10:27:18.527Z,53.20
2022-10-11T10:30:20.941Z,50.42
2022-10-11T10:33:24.191Z,51.58
2022-10-11T10:36:30.056Z,55.00
2022-10-11T10:39:37.618Z,52.78
2022-10-11T10:42:39.922Z,44.65
2022-10-11T10:45:59.460Z,49.78
2022-10-11T10:52:43.637Z,50.15
2022-10-11T10:55:49.242Z,47.88
2022-10-11T10:59:11.186Z,48.05
2022-10-11T11:02:38.914Z,43.28
2022-10-11T11:05:46.004Z,41.88
2022-10-11T11:08:57.547Z,37.97
2022-10-11T11:12:11.968Z,35.70
2022-10-11T11:15:19.805Z,38.15
2022-10-11T11:18:28.822Z,41.63
2022-10-11T11:21:41.364Z,39.35
2022-10-11T11:24:53.599Z,34.03
2022-10-11T11:28:04.765Z,32.90
2022-10-11T11:31:13.784Z,21.63
2022-10-11T11:34:21.918Z,23.75
2022-10-11T11:37:26.977Z,27.33
2022-10-11T11:40:35.248Z,23.77
2022-10-11T11:43:40.075Z,26.33
2022-10-11T11:46:44.842Z,24.75
2022-10-11T11:49:49.962Z,22.73
2022-10-11T11:52:54.854Z,21.10
2022-10-11T11:56:01.224Z,23.33
2022-10-11T11:59:09.004Z,24.50
2022-10-11T12:02:38.851Z,22.58
2022-10-11T12:06:19.403Z,18.85
2022-10-11T12:09:22.722Z,13.15
2022-10-11T12:12:29.477Z,8.45
2022-10-11T12:15:32.236Z,8.88
2022-10-11T12:18:37.199Z,10.60
2022-10-11T12:21:44.893Z,15.18
2022-10-11T12:24:55.161Z,11.82
2022-10-11T12:27:58.768Z,9.75
2022-10-11T12:31:04.767Z,9.10
2022-10-11T12:34:33.499Z,10.10
2022-10-11T12:37:50.529Z,10.93
2022-10-11T12:40:54.576Z,8.98
2022-10-11T12:44:15.986Z,10.95
2022-10-11T12:47:35.440Z,13.50
2022-10-11T12:50:46.849Z,13.68
2022-10-11T12:54:26.089Z,11.95
2022-10-11T12:57:46.459Z,12.57
2022-10-11T13:01:14.365Z,11.30
2022-10-11T13:04:19.402Z,7.22
2022-10-11T13:07:23.521Z,14.30
2022-10-11T13:10:30.941Z,11.00
2022-10-11T13:13:37.777Z,10.15
2022-10-11T13:16:49.066Z,6.68
2022-10-11T13:19:58.547Z,9.63
2022-10-11T13:23:01.524Z,11.55
2022-10-11T13:26:05.284Z,7.97
2022-10-11T13:29:15.104Z,7.72
2022-10-11T13:32:21.733Z,13.88
2022-10-11T13:35:28.861Z,11.30
2022-10-11T13:38:32.487Z,7.68
2022-10-11T13:41:36.062Z,9.80
2022-10-11T13:44:39.409Z,8.23
2022-10-11T13:47:41.916Z,5.43
2022-10-11T13:50:52.113Z,6.72
2022-10-11T13:53:57.582Z,8.05
2022-10-11T13:57:01.308Z,9.50
2022-10-11T14:00:09.411Z,9.50
2022-10-11T14:03:19.160Z,5.55
2022-10-11T14:06:21.482Z,9.93
2022-10-11T14:09:27.590Z,4.47
2022-10-11T14:12:35.478Z,9.52
2022-10-11T14:15:38.188Z,11.48
2022-10-11T14:18:46.128Z,8.45
2022-10-11T14:21:51.198Z,7.32
2022-10-11T14:24:53.460Z,6.50
2022-10-11T14:27:57.494Z,7.53
2022-10-11T14:30:59.715Z,8.05
2022-10-11T14:34:05.598Z,9.07
2022-10-11T14:37:08.124Z,7.63
2022-10-11T14:40:13.724Z,6.53
2022-10-11T14:43:17.346Z,9.10
2022-10-11T14:46:23.310Z,6.78
2022-10-11T14:49:27.496Z,7.53
2022-10-11T14:52:29.821Z,7.85
2022-10-11T14:55:32.457Z,5.68
2022-10-11T14:58:36.062Z,7.10
2022-10-11T15:01:38.358Z,4.85
2022-10-11T15:04:40.662Z,10.57
2022-10-11T15:07:42.917Z,9.43
2022-10-11T15:10:45.231Z,7.03
2022-10-11T15:13:49.476Z,6.28
2022-10-11T15:16:53.089Z,6.70
2022-10-11T15:19:55.575Z,4.80
2022-10-11T15:22:58.281Z,4.43
2022-10-11T15:26:00.708Z,6.45
2022-10-11T15:29:04.459Z,6.65
2022-10-11T15:32:07.031Z,6.00
2022-10-11T15:35:09.747Z,8.35
2022-10-11T15:38:17.179Z,9.23
2022-10-11T15:41:20.052Z,4.47
2022-10-11T15:44:23.789Z,8.85
2022-10-11T15:47:26.077Z,8.50
2022-10-11T15:50:39.827Z,7.70
2022-10-11T15:53:42.223Z,6.43
2022-10-11T15:56:44.485Z,5.55
2022-10-11T15:59:48.222Z,8.48
2022-10-11T16:02:50.963Z,8.43
2022-10-11T16:05:53.823Z,7.70
2022-10-11T16:08:56.108Z,10.45
2022-10-11T16:11:58.381Z,10.15
2022-10-11T16:15:02.003Z,14.57
2022-10-11T16:18:04.548Z,5.50
2022-10-11T16:21:08.991Z,6.25
2022-10-11T16:24:11.700Z,6.97
2022-10-11T16:27:17.974Z,9.27
2022-10-11T16:30:22.871Z,5.93
2022-10-11T16:33:25.275Z,9.48
2022-10-11T16:36:37.994Z,6.45
2022-10-11T16:39:41.739Z,5.90
2022-10-11T16:42:44.887Z,12.05
2022-10-11T16:45:48.530Z,11.85
2022-10-11T16:48:50.846Z,9.48
2022-10-11T16:51:54.642Z,9.45
2022-10-11T16:54:56.946Z,9.57
2022-10-11T16:57:59.224Z,11.80
2022-10-11T17:01:03.652Z,10.75
2022-10-11T17:04:06.497Z,12.63
2022-10-11T17:07:14.460Z,10.88
2022-10-11T17:10:16.878Z,15.27
2022-10-11T17:13:19.110Z,12.32
2022-10-11T17:16:22.900Z,12.50
2022-10-11T17:19:25.180Z,14.50
2022-10-11T17:22:28.525Z,28.00
2022-10-11T17:25:35.124Z,21.70
2022-10-11T17:28:38.737Z,10.52
2022-10-11T17:31:48.049Z,13.93
2022-10-11T17:34:51.645Z,6.50
2022-10-11T17:37:55.080Z,10.48
2022-10-11T17:41:01.666Z,12.00
2022-10-11T17:44:04.360Z,10.60
2022-10-11T17:47:07.990Z,9.70
2022-10-11T17:50:10.904Z,10.85
2022-10-11T17:53:13.121Z,11.98
2022-10-11T17:56:17.090Z,14.13
2022-10-11T17:59:27.230Z,12.73
2022-10-11T18:02:30.999Z,15.07
2022-10-11T18:05:33.934Z,16.55
2022-10-11T18:08:40.431Z,10.90
2022-10-11T18:11:46.844Z,9.50
2022-10-11T18:14:51.138Z,15.98
2022-10-11T18:17:56.467Z,11.90
2022-10-11T18:20:58.742Z,13.38
2022-10-11T18:24:02.447Z,17.52
2022-10-11T18:27:04.881Z,16.73
2022-10-11T18:30:09.324Z,10.15
2022-10-11T18:33:14.403Z,11.52
2022-10-11T18:36:18.534Z,13.45
2022-10-11T18:39:21.963Z,13.52
2022-10-11T18:42:24.235Z,12.15
2022-10-11T18:45:26.556Z,13.68
2022-10-11T18:48:32.520Z,10.45
2022-10-11T18:51:37.097Z,10.35
2022-10-11T18:54:39.748Z,14.35
2022-10-11T18:57:42.438Z,11.82
2022-10-11T19:00:44.965Z,13.73
2022-10-11T19:03:52.606Z,12.30
2022-10-11T19:06:55.029Z,10.15
2022-10-11T19:09:58.936Z,12.50
2022-10-11T19:13:01.317Z,23.90
2022-10-11T19:16:08.792Z,12.27
2022-10-11T19:19:13.454Z,12.95
2022-10-11T19:22:16.094Z,9.40
2022-10-11T19:25:18.431Z,15.73
2022-10-11T19:28:20.860Z,12.07
2022-10-11T19:31:23.153Z,14.38
2022-10-11T19:34:27.770Z,14.48
2022-10-11T19:37:30.413Z,19.85
2022-10-11T19:40:36.480Z,15.07
2022-10-11T19:43:40.154Z,20.70
2022-10-11T19:47:02.699Z,19.33
2022-10-11T19:50:07.881Z,24.50
2022-10-11T19:53:10.444Z,24.20
2022-10-11T19:56:14.859Z,19.65
2022-10-11T19:59:17.523Z,16.20
2022-10-11T20:02:19.919Z,15.32
2022-10-11T20:05:23.707Z,18.67
2022-10-11T20:08:26.130Z,11.25
2022-10-11T20:11:28.612Z,12.52
2022-10-11T20:14:30.972Z,9.45
2022-10-11T20:17:48.347Z,14.90
2022-10-11T20:20:53.204Z,12.52
2022-10-11T20:23:58.764Z,14.30
2022-10-11T20:27:02.484Z,11.65
2022-10-11T20:30:05.703Z,13.40
2022-10-11T20:33:07.958Z,11.50
2022-10-11T20:36:13.394Z,7.90
2022-10-11T20:39:31.539Z,11.73
2022-10-11T20:42:34.016Z,10.60
2022-10-11T20:45:36.303Z,13.13
2022-10-11T20:48:40.606Z,12.10
2022-10-11T20:51:44.287Z,13.02
2022-10-11T20:54:46.568Z,12.55
2022-10-11T20:57:49.209Z,13.95
2022-10-11T21:00:51.553Z,12.13
2022-10-11T21:03:58.599Z,15.80
2022-10-11T21:07:02.572Z,14.30
2022-10-11T21:10:05.476Z,9.95
2022-10-11T21:13:09.374Z,15.63
2022-10-11T21:16:13.402Z,9.65
2022-10-11T21:19:16.578Z,14.82
2022-10-11T21:22:20.489Z,13.88
2022-10-11T21:25:22.765Z,13.30
2022-10-11T21:28:25.137Z,12.95
2022-10-11T21:31:32.875Z,12.15
2022-10-11T21:34:36.385Z,16.23
2022-10-11T21:37:40.092Z,13.95
2022-10-11T21:40:42.409Z,11.15
2022-10-11T21:43:44.760Z,16.10
2022-10-11T21:47:07.012Z,11.32
2022-10-11T21:50:09.439Z,10.77
2022-10-11T21:53:13.252Z,10.70
2022-10-11T21:56:16.682Z,9.30
2022-10-11T21:59:19.081Z,12.57
2022-10-11T22:02:21.348Z,16.15
2022-10-11T22:05:24.465Z,10.90
2022-10-11T22:08:28.501Z,13.93
2022-10-11T22:11:31.052Z,14.98
2022-10-11T22:14:33.301Z,12.68
2022-10-11T22:17:36.337Z,15.88
2022-10-11T22:20:38.690Z,11.95
2022-10-11T22:23:43.888Z,12.45
2022-10-11T22:26:46.243Z,15.60
2022-10-11T22:29:48.415Z,16.90
2022-10-11T22:32:50.781Z,16.73
2022-10-11T22:35:56.365Z,13.13
2022-10-11T22:38:59.994Z,13.75
2022-10-11T22:42:02.292Z,14.45
2022-10-11T22:45:05.078Z,16.92
2022-10-11T22:48:07.340Z,12.20
2022-10-11T22:51:09.615Z,12.18
2022-10-11T22:54:13.404Z,14.98
2022-10-11T22:57:15.649Z,16.67
2022-10-11T23:00:18.329Z,13.27
2022-10-11T23:03:21.157Z,14.88
2022-10-11T23:06:23.483Z,15.00
2022-10-11T23:09:28.844Z,14.75
2022-10-11T23:12:31.177Z,13.00
2022-10-11T23:15:33.411Z,15.70
2022-10-11T23:18:36.252Z,16.45
2022-10-11T23:21:38.463Z,12.13
2022-10-11T23:24:42.149Z,14.00
2022-10-11T23:27:44.399Z,13.57
2022-10-11T23:30:46.632Z,15.93
2022-10-11T23:33:48.869Z,11.18
2022-10-11T23:36:51.080Z,15.63
2022-10-11T23:39:54.733Z,15.55
2022-10-11T23:42:57.047Z,16.10
2022-10-11T23:45:59.402Z,15.27
2022-10-11T23:49:01.894Z,12.13
2022-10-11T23:52:04.443Z,14.02
2022-10-11T23:55:08.840Z,14.02
2022-10-11T23:58:11.109Z,15.00
